Time;durP1;ratioP1;P1;durP2;ratioP2;P2;SDS_P1;SDS_P2;PMS_P1;PMS_P2;Temp;Humidity;BMP_temperature;BMP_pressure;BME280_temperature;BME280_humidity;BME280_pressure;Samples;Min_cycle;Max_cycle;Signal;HPM_P1;HPM_P2
2022/02/24 00:00:16;;;;;;;;;25.50;21.75;;;;;11.30;66.44;101285.72;4994640;28;45517;-85
2022/02/24 00:02:43;;;;;;;;;26.50;24.00;;;;;11.57;66.37;101328.00;5006472;28;45518;-82
2022/02/24 00:05:08;;;;;;;;;26.50;24.75;;;;;11.58;66.49;101343.00;4995024;28;45790;-83
2022/02/24 00:07:34;;;;;;;;;23.50;22.50;;;;;11.11;66.58;101247.22;5012805;28;45381;-86
2022/02/24 00:09:59;;;;;;;;;27.75;22.00;;;;;10.50;66.70;101123.81;5004796;28;46206;-84
2022/02/24 00:12:25;;;;;;;;;29.50;26.25;;;;;11.08;66.42;101226.03;4994241;28;45381;-84
2022/02/24 00:14:52;;;;;;;;;26.00;23.00;;;;;10.82;66.80;101182.94;4993013;28;45332;-85
2022/02/24 00:17:18;;;;;;;;;32.00;24.75;;;;;11.40;66.79;101271.19;5003625;28;45577;-83
2022/02/24 00:19:44;;;;;;;;;31.75;26.00;;;;;11.43;67.09;101285.38;5000385;28;45530;-83
2022/02/24 00:22:09;;;;;;;;;23.00;23.00;;;;;11.54;67.15;101299.84;5015157;28;45741;-83
2022/02/24 00:24:35;;;;;;;;;23.25;22.50;;;;;11.14;67.15;101228.06;5002212;28;45480;-83
2022/02/24 00:27:00;;;;;;;;;21.33;21.00;;;;;11.17;67.14;101242.19;4997530;28;45523;-82
2022/02/24 00:29:25;;;;;;;;;24.67;23.00;;;;;11.26;67.50;101245.22;4993793;28;46255;-84
2022/02/24 00:31:51;;;;;;;;;30.75;27.75;;;;;11.29;67.16;101255.88;4994269;28;46298;-86
2022/02/24 00:34:22;;;;;;;;;30.75;30.00;;;;;10.62;66.83;101147.94;5008990;28;45234;-83
2022/02/24 00:36:48;;;;;;;;;24.25;23.25;;;;;11.57;67.36;101291.16;4994461;28;45310;-87
2022/02/24 00:39:13;;;;;;;;;23.50;23.25;;;;;11.01;67.18;101189.81;4993419;28;45521;-89
2022/02/24 00:41:39;;;;;;;;;29.00;27.00;;;;;11.05;67.15;101197.91;5003595;28;45600;-82
2022/02/24 00:44:04;;;;;;;;;29.00;25.00;;;;;11.43;67.44;101252.84;5010710;28;45781;-84
2022/02/24 00:46:29;;;;;;;;;30.33;28.00;;;;;11.21;67.46;101204.66;4997560;28;45398;-86
2022/02/24 00:48:54;;;;;;;;;28.00;26.75;;;;;11.09;67.48;101185.78;4997489;28;47225;-89
2022/02/24 00:51:20;;;;;;;;;27.67;26.33;;;;;11.32;67.46;101210.34;5030595;28;45370;-87
2022/02/24 00:53:45;;;;;;;;;26.00;24.00;;;;;11.17;67.80;101173.81;5030997;28;45489;-86
2022/02/24 00:56:11;;;;;;;;;24.50;24.50;;;;;10.40;67.48;101041.06;5008894;28;45484;-89
2022/02/24 00:58:36;;;;;;;;;24.50;23.25;;;;;11.54;67.79;101238.41;5018084;28;45940;-82
2022/02/24 01:01:03;;;;;;;;;22.00;21.00;;;;;11.63;67.87;101246.66;5026058;28;45419;-85
2022/02/24 01:03:29;;;;;;;;;32.50;29.00;;;;;11.63;67.57;101259.81;5030348;28;45503;-83
2022/02/24 01:05:54;;;;;;;;;26.25;25.25;;;;;11.47;67.27;101242.50;5015257;28;45653;-82
2022/02/24 01:08:19;;;;;;;;;29.75;26.50;;;;;11.62;67.72;101239.56;5016313;28;46518;-83
2022/02/24 01:10:45;;;;;;;;;21.00;20.75;;;;;11.12;67.37;101151.69;5026186;28;45552;-84
2022/02/24 01:13:10;;;;;;;;;28.25;27.00;;;;;11.41;67.79;101194.00;5034791;28;45611;-87
2022/02/24 01:15:42;;;;;;;;;22.33;21.67;;;;;11.54;67.87;101226.13;5034325;28;45412;-83
2022/02/24 01:18:07;;;;;;;;;25.25;23.25;;;;;11.12;67.98;101141.16;5019866;28;45497;-83
2022/02/24 01:20:33;;;;;;;;;25.75;24.25;;;;;11.62;68.30;101223.78;5018294;28;45756;-84
2022/02/24 01:22:58;;;;;;;;;22.33;22.00;;;;;11.23;68.48;101154.72;4999803;28;45482;-83
2022/02/24 01:25:24;;;;;;;;;24.50;21.25;;;;;11.11;68.46;101131.47;5020560;28;45594;-83
2022/02/24 01:27:50;;;;;;;;;30.50;27.00;;;;;11.60;68.10;101212.31;5032845;28;46339;-85
2022/02/24 01:30:15;;;;;;;;;23.50;22.50;;;;;11.61;67.97;101228.16;5011173;28;45517;-85
2022/02/24 01:32:41;;;;;;;;;26.00;23.25;;;;;11.27;68.14;101169.78;5017301;28;45676;-83
2022/02/24 01:35:07;;;;;;;;;21.00;20.75;;;;;11.32;67.98;101184.91;5025720;28;45359;-89
2022/02/24 01:37:32;;;;;;;;;28.75;25.75;;;;;11.58;68.07;101229.78;5035919;28;45357;-82
2022/02/24 01:39:58;;;;;;;;;23.00;22.25;;;;;11.47;68.29;101215.28;5036661;28;45651;-90
2022/02/24 01:42:23;;;;;;;;;23.25;22.25;;;;;11.57;68.30;101241.13;5017954;28;45527;-85
2022/02/24 01:44:49;;;;;;;;;23.75;22.50;;;;;10.53;68.34;101063.47;5017890;28;45549;-85
2022/02/24 01:47:15;;;;;;;;;28.50;24.25;;;;;11.55;69.17;101232.28;5016845;28;46590;-84
2022/02/24 01:49:42;;;;;;;;;22.75;20.25;;;;;11.26;69.29;101179.44;5030083;28;45491;-88
2022/02/24 01:52:10;;;;;;;;;24.75;22.50;;;;;11.52;69.72;101200.56;5023097;28;45460;-83
2022/02/24 01:54:35;;;;;;;;;23.00;21.50;;;;;11.16;69.81;101126.41;5036561;28;45287;-84
2022/02/24 01:57:03;;;;;;;;;22.25;22.00;;;;;11.48;69.88;101178.53;5034215;28;45584;-85
2022/02/24 01:59:28;;;;;;;;;22.25;21.00;;;;;11.47;69.99;101170.56;5017171;28;45755;-86
2022/02/24 02:01:54;;;;;;;;;19.00;16.25;;;;;11.46;70.46;101172.28;5028921;28;45877;-83
2022/02/24 02:04:19;;;;;;;;;26.25;23.25;;;;;10.56;70.39;101009.28;4999071;28;45384;-82
2022/02/24 02:06:45;;;;;;;;;19.00;18.50;;;;;11.09;70.54;101104.22;5021447;28;46419;-89
2022/02/24 02:09:11;;;;;;;;;20.25;19.00;;;;;10.83;70.01;101064.66;5018513;28;45399;-83
2022/02/24 02:11:37;;;;;;;;;19.50;18.50;;;;;10.92;69.98;101094.78;5016530;28;45448;-84
2022/02/24 02:14:03;;;;;;;;;18.00;16.75;;;;;10.49;70.20;101023.06;5007968;28;45527;-86
2022/02/24 02:16:29;;;;;;;;;16.00;15.25;;;;;10.44;70.26;101031.56;5035334;28;45526;-83
2022/02/24 02:18:54;;;;;;;;;13.50;13.50;;;;;10.96;70.35;101117.75;5023427;28;45410;-85
2022/02/24 02:21:19;;;;;;;;;18.75;18.25;;;;;10.62;71.01;101055.06;5020476;28;45459;-85
2022/02/24 02:23:45;;;;;;;;;16.50;16.25;;;;;10.56;70.40;101046.09;5029988;28;45467;-90
2022/02/24 02:26:10;;;;;;;;;14.25;13.50;;;;;11.03;70.61;101130.28;5015917;28;46234;-83
2022/02/24 02:28:36;;;;;;;;;15.00;14.25;;;;;10.78;71.15;101082.00;5027737;28;45582;-83
2022/02/24 02:31:01;;;;;;;;;15.25;14.00;;;;;11.17;71.36;101152.75;5018353;28;45821;-88
2022/02/24 02:33:27;;;;;;;;;20.75;20.50;;;;;10.66;70.95;101056.97;5026925;28;45547;-90
2022/02/24 02:35:52;;;;;;;;;18.00;15.00;;;;;11.16;71.08;101147.44;5034510;28;46532;-86
2022/02/24 02:38:17;;;;;;;;;18.00;14.50;;;;;10.79;71.68;101075.91;5018956;28;45397;-88
2022/02/24 02:40:43;;;;;;;;;18.00;16.50;;;;;10.61;71.62;101038.38;5029115;28;45542;-84
2022/02/24 02:43:09;;;;;;;;;19.50;17.75;;;;;11.17;71.98;101131.72;5022526;28;45367;-82
2022/02/24 02:45:35;;;;;;;;;18.25;18.25;;;;;11.17;72.12;101131.72;5015402;28;47415;-86
2022/02/24 02:48:02;;;;;;;;;14.25;13.25;;;;;11.10;72.20;101132.31;5034696;28;45428;-87
2022/02/24 02:50:28;;;;;;;;;24.50;21.75;;;;;10.66;71.76;101047.34;5024286;28;45539;-91
2022/02/24 02:52:54;;;;;;;;;22.25;20.50;;;;;11.15;71.35;101135.13;5030449;28;45500;-83
2022/02/24 02:55:19;;;;;;;;;22.25;21.00;;;;;11.15;71.96;101130.78;5047433;28;45255;-87
2022/02/24 02:57:45;;;;;;;;;13.00;11.00;;;;;11.03;71.80;101103.97;5037829;28;44663;-84
2022/02/24 03:00:12;;;;;;;;;19.25;18.00;;;;;10.62;71.59;101024.41;5019840;28;45376;-83
2022/02/24 03:02:38;;;;;;;;;20.00;17.75;;;;;10.75;71.89;101042.44;5035147;28;44962;-83
2022/02/24 03:05:04;;;;;;;;;19.50;19.25;;;;;11.00;71.67;101085.47;5037223;28;45377;-84
2022/02/24 03:07:29;;;;;;;;;13.25;12.25;;;;;10.74;71.45;101031.88;5036912;28;45316;-87
2022/02/24 03:09:55;;;;;;;;;19.75;16.75;;;;;10.73;71.24;101024.81;5037206;28;45298;-84
2022/02/24 03:12:20;;;;;;;;;19.25;18.00;;;;;11.13;71.94;101100.84;5024754;28;45392;-86
2022/02/24 03:14:46;;;;;;;;;19.25;17.00;;;;;10.26;71.49;100956.47;5018971;28;45467;-86
2022/02/24 03:17:12;;;;;;;;;18.25;16.00;;;;;10.82;71.54;101044.47;5025781;28;45331;-83
2022/02/24 03:19:39;;;;;;;;;18.75;18.00;;;;;11.04;71.53;101087.38;5028231;28;45256;-85
2022/02/24 03:22:09;;;;;;;;;18.25;17.75;;;;;11.11;71.92;101102.53;5030236;28;45258;-89
2022/02/24 03:24:35;;;;;;;;;15.25;15.00;;;;;10.81;71.62;101044.41;5032874;28;46218;-82
2022/02/24 03:27:00;;;;;;;;;20.25;18.75;;;;;10.68;71.51;101024.63;5015284;28;45118;-82
2022/02/24 03:29:26;;;;;;;;;17.75;14.75;;;;;10.92;71.95;101064.13;5031320;28;45329;-82
2022/02/24 03:31:51;;;;;;;;;21.50;21.00;;;;;10.33;71.96;100950.59;5030840;28;45253;-83
2022/02/24 03:34:16;;;;;;;;;18.75;15.25;;;;;10.26;71.25;100932.81;5014259;28;47105;-85
2022/02/24 03:36:42;;;;;;;;;18.25;16.50;;;;;10.27;70.70;100939.84;5033299;28;44873;-84
2022/02/24 03:39:09;;;;;;;;;18.75;15.50;;;;;11.08;70.69;101092.81;5033678;28;44739;-83
2022/02/24 03:41:34;;;;;;;;;18.00;16.25;;;;;10.66;70.24;101009.66;5033534;28;45205;-83
2022/02/24 03:43:59;;;;;;;;;20.00;18.00;;;;;10.91;70.72;101040.41;5033727;28;45566;-85
2022/02/24 03:46:25;;;;;;;;;21.33;20.33;;;;;11.07;70.61;101058.53;5015198;28;44817;-84
2022/02/24 03:48:51;;;;;;;;;14.25;13.50;;;;;10.69;70.36;100992.28;5032780;28;45286;-83
2022/02/24 03:51:17;;;;;;;;;11.00;10.75;;;;;10.69;70.06;100981.75;5024940;28;45496;-85
2022/02/24 03:53:43;;;;;;;;;13.00;11.00;;;;;10.74;69.68;100993.34;5000969;28;47065;-84
2022/02/24 03:56:09;;;;;;;;;13.00;12.00;;;;;10.89;69.58;101013.16;5019032;28;45203;-82
2022/02/24 03:58:34;;;;;;;;;13.75;12.25;;;;;10.93;70.48;101015.94;5001328;28;45617;-82
2022/02/24 04:01:00;;;;;;;;;13.25;11.00;;;;;10.49;70.87;100946.84;5019088;28;45337;-82
2022/02/24 04:03:25;;;;;;;;;11.50;10.50;;;;;11.08;70.90;101047.19;5020042;28;45486;-82
2022/02/24 04:05:51;;;;;;;;;13.75;12.00;;;;;11.05;70.77;101041.81;5019007;28;45322;-83
2022/02/24 04:08:17;;;;;;;;;11.00;10.75;;;;;10.96;71.05;101028.31;5018160;28;45365;-83
2022/02/24 04:10:42;;;;;;;;;12.00;11.00;;;;;10.47;71.39;100940.63;5019765;28;45350;-83
2022/02/24 04:13:08;;;;;;;;;14.25;13.25;;;;;10.19;71.03;100893.97;5018485;28;45472;-83
2022/02/24 04:15:33;;;;;;;;;13.00;11.00;;;;;11.01;71.00;101037.28;5018431;28;45298;-82
2022/02/24 04:17:58;;;;;;;;;16.00;14.00;;;;;10.15;71.01;100883.28;5000704;28;45274;-85
2022/02/24 04:20:24;;;;;;;;;15.00;12.25;;;;;10.67;70.88;100967.66;5018667;28;45283;-83
2022/02/24 04:22:49;;;;;;;;;10.75;10.75;;;;;10.78;70.15;100981.19;5017389;28;46326;-82
2022/02/24 04:25:15;;;;;;;;;9.00;9.00;;;;;10.58;69.56;100960.31;5032033;28;45447;-83
2022/02/24 04:27:48;;;;;;;;;11.00;10.00;;;;;10.27;68.95;100916.22;5014338;28;45310;-84
2022/02/24 04:30:15;;;;;;;;;13.50;12.00;;;;;11.00;68.74;101027.59;5018577;28;45464;-83
2022/02/24 04:32:41;;;;;;;;;9.75;9.25;;;;;10.96;68.72;101033.59;5012030;28;47318;-87
2022/02/24 04:35:08;;;;;;;;;10.75;9.75;;;;;10.40;69.21;100927.19;5023108;28;45139;-84
2022/02/24 04:37:34;;;;;;;;;13.00;10.25;;;;;9.98;68.42;100862.53;5022494;28;45503;-85
2022/02/24 04:39:59;;;;;;;;;8.25;7.50;;;;;10.44;68.35;100958.91;5035198;28;45394;-84
2022/02/24 04:42:24;;;;;;;;;8.33;7.67;;;;;10.36;68.31;100957.72;5035371;28;45667;-83
2022/02/24 04:44:50;;;;;;;;;9.00;8.50;;;;;10.22;67.89;100917.72;5018496;28;45396;-87
2022/02/24 04:47:15;;;;;;;;;11.50;10.00;;;;;10.49;68.25;100961.69;5004322;28;45476;-89
2022/02/24 04:49:40;;;;;;;;;9.25;9.25;;;;;10.31;68.38;100939.13;5023079;28;45513;-88
2022/02/24 04:52:06;;;;;;;;;12.00;11.00;;;;;10.16;68.28;100933.25;5019110;28;45596;-83
2022/02/24 04:54:32;;;;;;;;;20.75;18.75;;;;;10.61;67.89;101021.72;5018473;28;45388;-89
2022/02/24 04:56:57;;;;;;;;;15.25;12.25;;;;;10.23;67.68;100953.66;5036158;28;45704;-86
2022/02/24 04:59:23;;;;;;;;;11.00;10.00;;;;;10.15;67.86;100944.59;5020248;28;45522;-84
2022/02/24 05:01:48;;;;;;;;;7.25;5.00;;;;;10.57;67.62;101012.81;5018003;28;45974;-83
2022/02/24 05:04:15;;;;;;;;;10.67;8.67;;;;;10.46;67.48;100999.28;5026453;28;45514;-88
2022/02/24 05:06:40;;;;;;;;;10.50;9.00;;;;;10.50;67.40;101016.94;5036530;28;45536;-85
2022/02/24 05:09:06;;;;;;;;;8.75;7.75;;;;;9.88;67.19;100909.38;5018470;28;45233;-89
2022/02/24 05:11:31;;;;;;;;;7.75;7.25;;;;;10.24;67.28;100994.88;5016638;28;46208;-83
2022/02/24 05:13:56;;;;;;;;;8.00;6.75;;;;;9.92;67.56;100934.91;5020543;28;45339;-88
2022/02/24 05:16:22;;;;;;;;;10.33;8.67;;;;;9.54;67.22;100873.88;5036157;28;45313;-85
2022/02/24 05:18:47;;;;;;;;;6.75;5.75;;;;;9.82;66.81;100923.16;5019583;28;45293;-84
2022/02/24 05:21:12;;;;;;;;;8.00;6.67;;;;;10.13;67.06;100990.00;5005044;28;46548;-88
2022/02/24 05:23:38;;;;;;;;;6.75;5.50;;;;;9.79;66.74;100939.66;5024925;28;45499;-82
2022/02/24 05:26:03;;;;;;;;;6.25;6.00;;;;;10.07;66.75;100993.28;5039298;28;45391;-83
2022/02/24 05:28:29;;;;;;;;;9.00;7.75;;;;;10.14;66.65;100999.69;5030692;28;45472;-85
2022/02/24 05:30:59;;;;;;;;;4.00;4.00;;;;;9.57;66.83;100900.25;5016104;28;45454;-89
2022/02/24 05:33:25;;;;;;;;;8.00;6.00;;;;;9.81;66.89;100943.25;5028749;28;45855;-84
2022/02/24 05:35:50;;;;;;;;;5.50;5.50;;;;;9.60;66.65;100909.97;5034288;28;45473;-88
2022/02/24 05:38:16;;;;;;;;;8.00;5.50;;;;;10.02;66.18;100981.72;5024438;28;45222;-82
2022/02/24 05:40:41;;;;;;;;;8.00;6.00;;;;;9.76;66.22;100943.91;5020182;28;47008;-83
2022/02/24 05:43:06;;;;;;;;;6.00;5.00;;;;;9.40;66.09;100881.19;5028601;28;45337;-84
2022/02/24 05:45:32;;;;;;;;;6.00;5.75;;;;;9.89;66.17;100975.03;5015985;28;45373;-83
2022/02/24 05:47:57;;;;;;;;;4.50;4.00;;;;;8.92;66.05;100818.03;5023140;28;45616;-85
2022/02/24 05:50:23;;;;;;;;;6.50;5.50;;;;;9.91;66.24;101001.38;5034260;28;45529;-90
2022/02/24 05:52:48;;;;;;;;;5.50;4.50;;;;;9.83;66.64;100991.44;5011376;28;46035;-87
2022/02/24 05:55:13;;;;;;;;;5.50;5.50;;;;;9.67;66.72;100960.16;5016311;28;45407;-85
2022/02/24 05:57:42;;;;;;;;;6.25;6.25;;;;;9.74;66.39;100982.28;5016923;28;46594;-83
2022/02/24 06:00:08;;;;;;;;;6.50;5.25;;;;;9.41;66.30;100939.78;5017370;28;45518;-85
2022/02/24 06:02:34;;;;;;;;;3.75;3.25;;;;;9.08;66.63;100871.97;5012592;28;45748;-87
2022/02/24 06:04:59;;;;;;;;;4.75;4.00;;;;;9.71;67.02;100988.34;5021030;28;45468;-83
2022/02/24 06:07:24;;;;;;;;;6.00;4.75;;;;;9.01;66.45;100865.59;5024294;28;45322;-83
2022/02/24 06:09:50;;;;;;;;;4.00;4.00;;;;;9.62;66.76;100976.56;5023256;28;45574;-84
2022/02/24 06:12:15;;;;;;;;;5.00;5.00;;;;;8.93;66.73;100855.59;5016470;28;45361;-82
2022/02/24 06:14:40;;;;;;;;;5.25;5.00;;;;;9.72;66.38;100982.25;5021260;28;45471;-82
2022/02/24 06:17:06;;;;;;;;;7.25;5.25;;;;;8.79;66.88;100808.72;5022773;28;45413;-82
2022/02/24 06:19:31;;;;;;;;;6.50;4.75;;;;;9.69;66.31;100963.72;5035318;28;45572;-82
2022/02/24 06:21:57;;;;;;;;;7.75;5.75;;;;;9.55;66.11;100934.28;5025590;28;45494;-85
2022/02/24 06:24:22;;;;;;;;;5.25;4.25;;;;;9.43;65.95;100922.41;5001527;28;45621;-86
2022/02/24 06:26:48;;;;;;;;;4.75;4.50;;;;;9.15;65.94;100881.00;5039465;28;45354;-88
2022/02/24 06:29:13;;;;;;;;;6.75;4.75;;;;;9.24;66.15;100910.22;5029891;28;47032;-90
2022/02/24 06:31:40;;;;;;;;;9.50;7.00;;;;;8.64;66.19;100807.19;5040994;28;46383;-86
2022/02/24 06:34:05;;;;;;;;;6.75;5.25;;;;;9.50;65.99;100972.56;5028890;28;44987;-85
2022/02/24 06:36:31;;;;;;;;;9.50;7.25;;;;;9.29;65.98;100940.19;5032831;28;45162;-83
2022/02/24 06:38:57;;;;;;;;;4.25;4.25;;;;;9.51;66.01;100976.09;5026161;28;46954;-83
2022/02/24 06:41:26;;;;;;;;;6.25;5.00;;;;;9.19;66.10;100933.63;5033020;28;45047;-84
2022/02/24 06:43:53;;;;;;;;;7.00;5.00;;;;;9.05;66.07;100913.78;5028366;28;45564;-92
2022/02/24 06:46:18;;;;;;;;;5.25;4.00;;;;;9.43;66.23;100983.63;5016039;28;45470;-89
2022/02/24 06:48:44;;;;;;;;;7.00;6.25;;;;;9.41;66.15;100985.31;5025259;28;46282;-87
2022/02/24 06:51:10;;;;;;;;;8.75;6.25;;;;;9.40;66.41;100988.72;5035221;28;45862;-82
2022/02/24 06:53:35;;;;;;;;;9.00;6.50;;;;;9.25;66.05;100983.72;5035303;28;45563;-83
2022/02/24 06:56:01;;;;;;;;;4.75;4.75;;;;;9.33;66.30;100999.81;5036179;28;45372;-86
2022/02/24 06:58:26;;;;;;;;;3.75;3.50;;;;;9.22;66.47;100966.97;5035915;28;46736;-89
2022/02/24 07:00:52;;;;;;;;;5.00;4.50;;;;;8.91;66.71;100917.53;5034917;28;45281;-86
2022/02/24 07:03:17;;;;;;;;;5.00;5.00;;;;;9.11;66.43;100934.13;5028637;28;45507;-87
2022/02/24 07:05:42;;;;;;;;;4.50;4.00;;;;;9.45;66.13;100981.06;5002964;28;45714;-90
2022/02/24 07:08:08;;;;;;;;;6.00;4.00;;;;;8.99;66.50;100897.81;5015103;28;45356;-88
2022/02/24 07:10:33;;;;;;;;;8.00;7.25;;;;;9.34;66.05;100956.09;4997424;28;45306;-90
2022/02/24 07:12:59;;;;;;;;;9.50;8.00;;;;;9.17;65.61;100929.19;4996714;28;45418;-93
2022/02/24 07:15:24;;;;;;;;;9.25;5.25;;;;;9.49;65.61;100986.50;5014643;28;45420;-89
2022/02/24 07:17:50;;;;;;;;;9.25;8.50;;;;;9.44;65.92;100971.41;5013962;28;47446;-90
2022/02/24 07:20:18;;;;;;;;;9.50;7.00;;;;;9.20;65.51;100932.81;5014525;28;45440;-94
2022/02/24 07:22:44;;;;;;;;;7.50;4.25;;;;;8.55;65.20;100815.53;5014148;28;45549;-83
2022/02/24 07:25:10;;;;;;;;;7.25;4.75;;;;;9.43;65.41;100967.88;4996564;28;45295;-92
2022/02/24 07:27:35;;;;;;;;;4.50;4.00;;;;;9.10;65.36;100893.91;5014479;28;45499;-82
2022/02/24 07:30:03;;;;;;;;;5.00;4.00;;;;;9.16;65.23;100906.38;5014061;28;45420;-84
2022/02/24 07:32:28;;;;;;;;;4.75;4.50;;;;;9.60;65.04;100980.81;5014630;28;44784;-81
2022/02/24 07:34:55;;;;;;;;;5.00;4.00;;;;;8.85;65.18;100847.41;5014040;28;45298;-88
2022/02/24 07:37:20;;;;;;;;;6.25;5.00;;;;;9.25;64.46;100899.78;4997533;28;48225;-93
2022/02/24 07:39:46;;;;;;;;;5.00;4.00;;;;;9.63;64.29;100957.34;5015183;28;45263;-89
2022/02/24 07:42:12;;;;;;;;;5.00;5.00;;;;;9.45;63.99;100928.59;5015515;28;45199;-89
2022/02/24 07:44:37;;;;;;;;;4.00;3.75;;;;;9.21;64.16;100874.31;5015187;28;45623;-90
2022/02/24 07:47:03;;;;;;;;;5.00;4.00;;;;;9.90;63.86;100983.81;5015263;28;45427;-94
2022/02/24 07:49:28;;;;;;;;;10.25;6.00;;;;;9.21;63.65;100863.81;5014837;28;45217;-91
2022/02/24 07:51:54;;;;;;;;;4.75;4.00;;;;;9.98;63.60;100990.28;5014952;28;44904;-93
2022/02/24 07:54:20;;;;;;;;;8.00;6.00;;;;;10.05;63.95;100981.84;5015285;28;45317;-89
2022/02/24 07:56:46;;;;;;;;;4.00;4.00;;;;;10.14;63.13;100984.81;5014878;28;45336;-86
2022/02/24 07:59:13;;;;;;;;;2.50;2.50;;;;;10.04;63.10;100957.28;5015099;28;45288;-87
2022/02/24 08:01:38;;;;;;;;;3.75;3.00;;;;;9.64;62.63;100886.53;5014711;28;45278;-90
2022/02/24 08:04:04;;;;;;;;;4.25;4.00;;;;;9.95;62.49;100916.63;5014539;28;44890;-83
2022/02/24 08:06:29;;;;;;;;;5.00;4.00;;;;;10.14;62.65;100942.78;5014969;28;45366;-93
2022/02/24 08:08:54;;;;;;;;;4.00;3.00;;;;;9.72;62.37;100874.63;5013886;28;45250;-90
2022/02/24 08:11:20;;;;;;;;;3.00;3.00;;;;;10.12;62.43;100936.59;5014419;28;45278;-89
2022/02/24 08:13:45;;;;;;;;;2.75;2.75;;;;;9.53;62.32;100815.28;5015655;28;45290;-93
2022/02/24 08:16:12;;;;;;;;;3.25;3.25;;;;;10.43;62.81;100970.22;5017324;28;47749;-93
2022/02/24 08:18:37;;;;;;;;;3.67;3.67;;;;;9.55;61.99;100823.19;5017922;28;45360;-89
2022/02/24 08:21:02;;;;;;;;;3.50;3.50;;;;;10.38;62.00;100947.25;5000227;28;44851;-93
2022/02/24 08:23:28;;;;;;;;;4.25;3.00;;;;;10.50;61.81;100972.28;4999710;28;45543;-87
2022/02/24 08:25:53;;;;;;;;;5.25;3.50;;;;;10.21;61.72;100910.69;5017966;28;45431;-90
2022/02/24 08:28:19;;;;;;;;;3.25;3.00;;;;;9.67;61.61;100823.69;5017604;28;44758;-90
2022/02/24 08:30:45;;;;;;;;;4.25;3.50;;;;;10.44;61.89;100966.78;5017843;28;45474;-91
2022/02/24 08:33:12;;;;;;;;;4.00;3.00;;;;;10.08;61.62;100893.56;5000060;28;45548;-92
2022/02/24 08:35:38;;;;;;;;;6.00;3.00;;;;;10.23;61.88;100901.13;5000147;28;46403;-90
2022/02/24 08:38:05;;;;;;;;;2.50;2.25;;;;;10.53;61.38;100943.47;4999934;28;45922;-91
2022/02/24 08:40:31;;;;;;;;;4.50;3.75;;;;;10.53;61.24;100940.84;5000258;28;44724;-90
2022/02/24 08:42:56;;;;;;;;;2.75;2.75;;;;;10.61;60.99;100977.03;5017979;28;45593;-84
2022/02/24 08:45:22;;;;;;;;;3.75;3.00;;;;;10.58;61.07;100947.16;4999975;28;48105;-94
2022/02/24 08:47:48;;;;;;;;;2.75;2.25;;;;;10.69;61.23;100958.09;5017342;28;45388;-92
2022/02/24 08:50:14;;;;;;;;;3.50;3.50;;;;;10.76;61.46;100959.22;5017388;28;45345;-91
2022/02/24 08:52:39;;;;;;;;;0.25;0.00;;;;;10.83;60.91;100953.34;5018063;28;45278;-90
2022/02/24 08:55:05;;;;;;;;;3.75;3.00;;;;;10.81;60.90;100945.41;4999387;28;48560;-88
2022/02/24 08:57:30;;;;;;;;;1.25;1.00;;;;;10.46;60.69;100870.50;5018271;28;45526;-89
2022/02/24 08:59:56;;;;;;;;;4.00;3.00;;;;;10.81;60.80;100912.97;5017446;28;45455;-90
2022/02/24 09:02:21;;;;;;;;;3.00;3.00;;;;;11.04;61.00;100943.63;5017330;28;45353;-87
2022/02/24 09:04:46;;;;;;;;;3.75;2.75;;;;;10.05;60.49;100764.78;4999978;28;46057;-90
2022/02/24 09:07:12;;;;;;;;;2.25;2.00;;;;;10.89;60.28;100897.47;5016506;28;45433;-85
2022/02/24 09:09:37;;;;;;;;;3.25;2.00;;;;;11.15;60.20;100919.44;5016778;28;44822;-94
2022/02/24 09:12:03;;;;;;;;;3.25;2.00;;;;;11.37;60.07;100954.41;5017398;28;44881;-85
2022/02/24 09:14:29;;;;;;;;;5.00;3.75;;;;;11.33;59.87;100957.78;5017192;28;46532;-94
2022/02/24 09:16:55;;;;;;;;;3.00;2.00;;;;;11.03;60.04;100909.34;5018051;28;45437;-87
2022/02/24 09:19:21;;;;;;;;;2.00;2.00;;;;;11.11;59.99;100939.44;5017827;28;45601;-82
2022/02/24 09:21:46;;;;;;;;;3.00;2.00;;;;;10.99;59.90;100916.25;5016810;28;45448;-82
2022/02/24 09:24:12;;;;;;;;;3.75;2.50;;;;;11.22;59.98;100966.13;5016560;28;45634;-88
2022/02/24 09:26:38;;;;;;;;;4.75;2.25;;;;;10.77;60.28;100885.66;5016613;28;45306;-90
2022/02/24 09:29:05;;;;;;;;;1.25;1.25;;;;;10.70;59.95;100867.00;4999351;28;45426;-83
2022/02/24 09:31:30;;;;;;;;;3.00;2.50;;;;;11.14;59.96;100942.22;5016594;28;45625;-83
2022/02/24 09:33:56;;;;;;;;;3.00;2.00;;;;;11.04;59.89;100924.31;5016684;28;46211;-91
2022/02/24 09:36:21;;;;;;;;;2.00;2.00;;;;;10.79;59.93;100877.84;5016511;28;45325;-82
2022/02/24 09:38:46;;;;;;;;;1.00;1.00;;;;;11.15;60.29;100916.78;5016858;28;45285;-85
2022/02/24 09:41:14;;;;;;;;;3.00;1.50;;;;;11.09;60.14;100909.59;5017643;28;45293;-88
2022/02/24 09:43:39;;;;;;;;;2.00;2.00;;;;;11.11;60.06;100900.88;4999496;28;46481;-90
2022/02/24 09:46:10;;;;;;;;;0.75;0.00;;;;;10.57;59.79;100807.81;4998417;28;45448;-85
2022/02/24 09:48:41;;;;;;;;;1.25;1.25;;;;;11.06;59.56;100878.78;5018148;28;45356;-94
2022/02/24 09:51:08;;;;;;;;;1.00;1.00;;;;;11.44;59.53;100949.38;4996964;28;45290;-93
2022/02/24 09:53:37;;;;;;;;;2.25;1.75;;;;;11.47;59.76;100949.47;4997567;28;46118;-94
2022/02/24 09:56:04;;;;;;;;;2.00;2.00;;;;;11.37;59.30;100914.03;5005051;28;45341;-92
2022/02/24 09:58:31;;;;;;;;;2.00;2.00;;;;;11.24;59.10;100864.50;5016100;28;45487;-90
2022/02/24 10:00:59;;;;;;;;;2.75;2.00;;;;;11.59;58.90;100910.41;5016533;28;45450;-94
2022/02/24 10:03:27;;;;;;;;;2.00;2.00;;;;;11.57;58.92;100909.44;5016011;28;45647;-91
2022/02/24 10:05:53;;;;;;;;;2.00;2.00;;;;;11.62;58.95;100923.66;5015829;28;45399;-86
2022/02/24 10:08:29;;;;;;;;;3.00;2.75;;;;;11.65;58.85;100928.13;5014311;28;45443;-94
2022/02/24 10:10:55;;;;;;;;;1.50;1.00;;;;;11.27;58.99;100878.63;5016875;28;45632;-91
2022/02/24 10:13:20;;;;;;;;;3.00;2.25;;;;;11.41;59.06;100905.41;5016027;28;45411;-86
2022/02/24 10:15:58;;;;;;;;;3.00;2.00;;;;;11.23;59.34;100912.66;5016769;28;45425;-91
2022/02/24 10:18:26;;;;;;;;;2.25;2.00;;;;;10.99;59.52;100876.81;5016278;28;45420;-91
2022/02/24 10:20:55;;;;;;;;;4.00;1.25;;;;;11.13;59.93;100894.78;5016197;28;45337;-91
2022/02/24 10:23:29;;;;;;;;;3.00;2.75;;;;;10.69;59.89;100813.53;5015411;28;45695;-89
2022/02/24 10:26:00;;;;;;;;;4.00;3.00;;;;;11.24;59.90;100909.22;5015929;28;45588;-93
2022/02/24 10:28:30;;;;;;;;;3.00;2.00;;;;;11.13;60.18;100865.84;5016334;28;45636;-93
2022/02/24 10:30:56;;;;;;;;;3.50;2.50;;;;;11.10;59.91;100835.97;5016191;28;45926;-95
2022/02/24 10:33:29;;;;;;;;;1.25;1.25;;;;;11.32;59.56;100845.47;5031451;28;47237;-89
2022/02/24 10:36:16;;;;;;;;;2.00;2.00;;;;;11.71;59.63;100904.63;5031292;28;45810;-90
2022/02/24 10:38:58;;;;;;;;;3.00;1.50;;;;;11.80;59.08;100903.19;5011139;28;45430;-93
2022/02/24 10:41:29;;;;;;;;;2.75;2.00;;;;;11.71;59.12;100892.34;5014578;28;45555;-88
2022/02/24 10:44:11;;;;;;;;;2.00;2.00;;;;;11.66;58.91;100858.84;5015419;28;46776;-83
2022/02/24 10:46:36;;;;;;;;;2.00;1.50;;;;;12.00;59.09;100895.94;5031373;28;45849;-85
2022/02/24 10:49:02;;;;;;;;;1.75;1.75;;;;;11.81;58.92;100799.63;5031115;28;45332;-92
2022/02/24 10:51:31;;;;;;;;;2.00;1.00;;;;;11.64;58.45;100758.75;5034194;28;44824;-90
2022/02/24 10:54:06;;;;;;;;;4.50;2.00;;;;;12.70;57.97;100926.16;5033346;28;46392;-89
2022/02/24 10:56:34;;;;;;;;;1.00;1.00;;;;;12.11;57.68;100826.03;5036604;28;45915;-90
2022/02/24 10:59:00;;;;;;;;;2.75;1.75;;;;;12.25;57.58;100839.63;5035819;28;45496;-85
2022/02/24 11:01:28;;;;;;;;;2.75;2.75;;;;;12.67;57.64;100915.53;5034890;28;45369;-88
2022/02/24 11:04:05;;;;;;;;;4.50;3.00;;;;;12.47;57.42;100885.06;5034642;28;46348;-86
2022/02/24 11:06:37;;;;;;;;;6.75;6.00;;;;;12.44;57.51;100940.31;5034352;28;45419;-90
2022/02/24 11:09:07;;;;;;;;;5.25;4.25;;;;;12.25;58.00;100892.31;5034450;28;45415;-86
2022/02/24 11:11:35;;;;;;;;;2.25;2.00;;;;;11.74;58.25;100808.22;5034677;28;45332;-81
2022/02/24 11:14:02;;;;;;;;;2.75;2.00;;;;;12.06;58.43;100855.72;5034532;28;46452;-83